Login to view Products
 
Tuesday, July 23, 2019 (12:22 UTC)
Sharjah International Airport
ICAO: OMSJ
IATA: SHJ
  • METAR OMSJ 231200Z 35010KT 330V030 8000 NSC 39/25 Q0995 NOSIG=
  • TAF OMSJ 231100Z 2312/2418 33012KT 8000 NSC BECMG 2314/2316 07007KT BECMG 2400/2402 15010KT BECMG 2408/2410 33013KT BECMG 2414/2416 07005KT=
D:\Input Parser\Destinations\Final\11\OMSJL12181100968561565.txt
1